sensor_id;sensor_type;location;lat;lon;timestamp;P1;durP1;ratioP1;P2;durP2;ratioP2
31081;SDS011;17737;52.586;13.284;2023-05-31T00:01:44;0.30;;;0.30;;
31081;SDS011;17737;52.586;13.284;2023-05-31T00:04:13;0.30;;;0.30;;
31081;SDS011;17737;52.586;13.284;2023-05-31T00:06:41;0.35;;;0.35;;
31081;SDS011;17737;52.586;13.284;2023-05-31T00:09:11;0.35;;;0.35;;
31081;SDS011;17737;52.586;13.284;2023-05-31T00:11:39;0.40;;;0.40;;
31081;SDS011;17737;52.586;13.284;2023-05-31T00:14:07;0.30;;;0.30;;
31081;SDS011;17737;52.586;13.284;2023-05-31T00:16:35;0.38;;;0.38;;
31081;SDS011;17737;52.586;13.284;2023-05-31T00:19:06;0.38;;;0.38;;
31081;SDS011;17737;52.586;13.284;2023-05-31T00:21:35;0.40;;;0.40;;
31081;SDS011;17737;52.586;13.284;2023-05-31T00:24:03;0.50;;;0.50;;
31081;SDS011;17737;52.586;13.284;2023-05-31T00:26:32;0.30;;;0.30;;
31081;SDS011;17737;52.586;13.284;2023-05-31T00:29:00;0.35;;;0.35;;
31081;SDS011;17737;52.586;13.284;2023-05-31T00:31:28;0.38;;;0.38;;
31081;SDS011;17737;52.586;13.284;2023-05-31T00:33:56;0.30;;;0.30;;
31081;SDS011;17737;52.586;13.284;2023-05-31T00:36:24;0.50;;;0.50;;
31081;SDS011;17737;52.586;13.284;2023-05-31T00:38:53;0.30;;;0.30;;
31081;SDS011;17737;52.586;13.284;2023-05-31T00:41:21;0.30;;;0.30;;
31081;SDS011;17737;52.586;13.284;2023-05-31T00:43:49;0.40;;;0.40;;
31081;SDS011;17737;52.586;13.284;2023-05-31T00:46:21;0.30;;;0.30;;
31081;SDS011;17737;52.586;13.284;2023-05-31T00:48:55;0.30;;;0.30;;
31081;SDS011;17737;52.586;13.284;2023-05-31T00:51:24;0.32;;;0.32;;
31081;SDS011;17737;52.586;13.284;2023-05-31T00:53:56;0.40;;;0.40;;
31081;SDS011;17737;52.586;13.284;2023-05-31T00:56:26;0.50;;;0.50;;
31081;SDS011;17737;52.586;13.284;2023-05-31T00:58:54;0.40;;;0.40;;
31081;SDS011;17737;52.586;13.284;2023-05-31T01:03:53;0.30;;;0.30;;
31081;SDS011;17737;52.586;13.284;2023-05-31T01:06:23;0.45;;;0.45;;
31081;SDS011;17737;52.586;13.284;2023-05-31T01:08:51;0.40;;;0.40;;
31081;SDS011;17737;52.586;13.284;2023-05-31T01:11:22;0.40;;;0.40;;
31081;SDS011;17737;52.586;13.284;2023-05-31T01:14:09;0.40;;;0.40;;
31081;SDS011;17737;52.586;13.284;2023-05-31T01:16:50;0.30;;;0.30;;
31081;SDS011;17737;52.586;13.284;2023-05-31T01:19:26;0.40;;;0.40;;
31081;SDS011;17737;52.586;13.284;2023-05-31T01:22:18;0.38;;;0.38;;
31081;SDS011;17737;52.586;13.284;2023-05-31T01:25:01;0.40;;;0.40;;
31081;SDS011;17737;52.586;13.284;2023-05-31T01:27:51;0.40;;;0.40;;
31081;SDS011;17737;52.586;13.284;2023-05-31T01:30:21;0.40;;;0.40;;
31081;SDS011;17737;52.586;13.284;2023-05-31T01:32:52;0.40;;;0.40;;
31081;SDS011;17737;52.586;13.284;2023-05-31T01:35:23;0.40;;;0.40;;
31081;SDS011;17737;52.586;13.284;2023-05-31T01:37:51;0.30;;;0.30;;
31081;SDS011;17737;52.586;13.284;2023-05-31T01:40:19;0.30;;;0.30;;
31081;SDS011;17737;52.586;13.284;2023-05-31T01:42:48;0.40;;;0.40;;
31081;SDS011;17737;52.586;13.284;2023-05-31T01:45:19;0.30;;;0.30;;
31081;SDS011;17737;52.586;13.284;2023-05-31T01:50:21;0.40;;;0.40;;
31081;SDS011;17737;52.586;13.284;2023-05-31T01:52:51;0.40;;;0.40;;
31081;SDS011;17737;52.586;13.284;2023-05-31T01:55:19;0.20;;;0.20;;
31081;SDS011;17737;52.586;13.284;2023-05-31T01:57:48;0.30;;;0.30;;
31081;SDS011;17737;52.586;13.284;2023-05-31T02:00:19;0.40;;;0.40;;
31081;SDS011;17737;52.586;13.284;2023-05-31T02:02:49;0.40;;;0.40;;
31081;SDS011;17737;52.586;13.284;2023-05-31T02:07:46;0.30;;;0.30;;
31081;SDS011;17737;52.586;13.284;2023-05-31T02:10:15;0.40;;;0.40;;
31081;SDS011;17737;52.586;13.284;2023-05-31T02:12:43;0.50;;;0.50;;
31081;SDS011;17737;52.586;13.284;2023-05-31T02:15:12;0.38;;;0.38;;
31081;SDS011;17737;52.586;13.284;2023-05-31T02:17:41;0.50;;;0.50;;
31081;SDS011;17737;52.586;13.284;2023-05-31T02:20:11;0.40;;;0.40;;
31081;SDS011;17737;52.586;13.284;2023-05-31T02:22:42;0.43;;;0.43;;
31081;SDS011;17737;52.586;13.284;2023-05-31T02:27:41;0.38;;;0.38;;
31081;SDS011;17737;52.586;13.284;2023-05-31T02:30:10;0.40;;;0.40;;
31081;SDS011;17737;52.586;13.284;2023-05-31T02:32:39;0.30;;;0.30;;
31081;SDS011;17737;52.586;13.284;2023-05-31T02:35:08;0.40;;;0.40;;
31081;SDS011;17737;52.586;13.284;2023-05-31T02:37:38;0.30;;;0.30;;
31081;SDS011;17737;52.586;13.284;2023-05-31T02:40:06;0.40;;;0.40;;
31081;SDS011;17737;52.586;13.284;2023-05-31T02:42:35;0.30;;;0.30;;
31081;SDS011;17737;52.586;13.284;2023-05-31T02:45:05;0.30;;;0.30;;
31081;SDS011;17737;52.586;13.284;2023-05-31T02:47:35;0.40;;;0.40;;
31081;SDS011;17737;52.586;13.284;2023-05-31T02:50:07;0.30;;;0.30;;
31081;SDS011;17737;52.586;13.284;2023-05-31T02:52:37;0.40;;;0.40;;
31081;SDS011;17737;52.586;13.284;2023-05-31T02:55:05;0.47;;;0.47;;
31081;SDS011;17737;52.586;13.284;2023-05-31T02:57:34;0.35;;;0.35;;
31081;SDS011;17737;52.586;13.284;2023-05-31T03:00:03;0.32;;;0.32;;
31081;SDS011;17737;52.586;13.284;2023-05-31T03:02:39;0.40;;;0.40;;
31081;SDS011;17737;52.586;13.284;2023-05-31T03:05:09;0.40;;;0.40;;
31081;SDS011;17737;52.586;13.284;2023-05-31T03:07:37;0.30;;;0.30;;
31081;SDS011;17737;52.586;13.284;2023-05-31T03:10:06;0.40;;;0.40;;
31081;SDS011;17737;52.586;13.284;2023-05-31T03:12:36;0.57;;;0.57;;
31081;SDS011;17737;52.586;13.284;2023-05-31T03:15:05;0.50;;;0.50;;
31081;SDS011;17737;52.586;13.284;2023-05-31T03:20:04;0.40;;;0.40;;
31081;SDS011;17737;52.586;13.284;2023-05-31T03:22:36;0.30;;;0.30;;
31081;SDS011;17737;52.586;13.284;2023-05-31T03:25:05;0.40;;;0.40;;
31081;SDS011;17737;52.586;13.284;2023-05-31T03:27:33;0.60;;;0.50;;
31081;SDS011;17737;52.586;13.284;2023-05-31T03:30:02;0.32;;;0.32;;
31081;SDS011;17737;52.586;13.284;2023-05-31T03:32:32;0.55;;;0.55;;
31081;SDS011;17737;52.586;13.284;2023-05-31T03:35:03;0.40;;;0.40;;
31081;SDS011;17737;52.586;13.284;2023-05-31T03:37:32;0.40;;;0.40;;
31081;SDS011;17737;52.586;13.284;2023-05-31T03:40:01;0.40;;;0.40;;
31081;SDS011;17737;52.586;13.284;2023-05-31T03:42:30;0.30;;;0.30;;
31081;SDS011;17737;52.586;13.284;2023-05-31T03:44:58;0.50;;;0.50;;
31081;SDS011;17737;52.586;13.284;2023-05-31T03:47:26;0.45;;;0.45;;
31081;SDS011;17737;52.586;13.284;2023-05-31T03:49:54;0.40;;;0.40;;
31081;SDS011;17737;52.586;13.284;2023-05-31T03:52:22;0.30;;;0.30;;
31081;SDS011;17737;52.586;13.284;2023-05-31T03:54:50;0.30;;;0.30;;
31081;SDS011;17737;52.586;13.284;2023-05-31T03:57:19;0.30;;;0.30;;
31081;SDS011;17737;52.586;13.284;2023-05-31T03:59:48;0.30;;;0.30;;
31081;SDS011;17737;52.586;13.284;2023-05-31T04:02:16;0.40;;;0.40;;
31081;SDS011;17737;52.586;13.284;2023-05-31T04:04:44;0.30;;;0.30;;
31081;SDS011;17737;52.586;13.284;2023-05-31T04:07:13;0.30;;;0.30;;
31081;SDS011;17737;52.586;13.284;2023-05-31T04:09:41;0.43;;;0.43;;
31081;SDS011;17737;52.586;13.284;2023-05-31T04:12:09;0.30;;;0.30;;
31081;SDS011;17737;52.586;13.284;2023-05-31T04:14:38;0.40;;;0.40;;
31081;SDS011;17737;52.586;13.284;2023-05-31T04:17:07;0.30;;;0.30;;
31081;SDS011;17737;52.586;13.284;2023-05-31T04:19:35;0.20;;;0.20;;
31081;SDS011;17737;52.586;13.284;2023-05-31T04:22:03;0.32;;;0.32;;
31081;SDS011;17737;52.586;13.284;2023-05-31T04:24:31;0.30;;;0.30;;
31081;SDS011;17737;52.586;13.284;2023-05-31T04:26:59;0.30;;;0.30;;
31081;SDS011;17737;52.586;13.284;2023-05-31T04:29:29;0.20;;;0.20;;
31081;SDS011;17737;52.586;13.284;2023-05-31T04:31:59;0.22;;;0.22;;
31081;SDS011;17737;52.586;13.284;2023-05-31T04:34:27;0.25;;;0.25;;
31081;SDS011;17737;52.586;13.284;2023-05-31T04:36:55;0.30;;;0.30;;
31081;SDS011;17737;52.586;13.284;2023-05-31T04:39:23;0.40;;;0.40;;
31081;SDS011;17737;52.586;13.284;2023-05-31T04:41:52;0.30;;;0.30;;
31081;SDS011;17737;52.586;13.284;2023-05-31T04:44:20;0.20;;;0.20;;
31081;SDS011;17737;52.586;13.284;2023-05-31T04:46:47;0.30;;;0.30;;
31081;SDS011;17737;52.586;13.284;2023-05-31T04:49:17;0.20;;;0.20;;
31081;SDS011;17737;52.586;13.284;2023-05-31T04:51:45;0.30;;;0.30;;
31081;SDS011;17737;52.586;13.284;2023-05-31T04:54:13;0.22;;;0.22;;
31081;SDS011;17737;52.586;13.284;2023-05-31T04:56:41;0.30;;;0.30;;
31081;SDS011;17737;52.586;13.284;2023-05-31T04:59:09;0.40;;;0.30;;
31081;SDS011;17737;52.586;13.284;2023-05-31T05:01:38;0.20;;;0.20;;
31081;SDS011;17737;52.586;13.284;2023-05-31T05:04:06;0.30;;;0.30;;
31081;SDS011;17737;52.586;13.284;2023-05-31T05:06:36;0.30;;;0.30;;
31081;SDS011;17737;52.586;13.284;2023-05-31T05:09:06;0.30;;;0.30;;
31081;SDS011;17737;52.586;13.284;2023-05-31T05:11:35;0.30;;;0.30;;
31081;SDS011;17737;52.586;13.284;2023-05-31T05:14:03;0.20;;;0.20;;
31081;SDS011;17737;52.586;13.284;2023-05-31T05:16:31;0.30;;;0.30;;
31081;SDS011;17737;52.586;13.284;2023-05-31T05:18:59;0.28;;;0.28;;
31081;SDS011;17737;52.586;13.284;2023-05-31T05:21:27;0.20;;;0.20;;
31081;SDS011;17737;52.586;13.284;2023-05-31T05:23:57;0.20;;;0.20;;
31081;SDS011;17737;52.586;13.284;2023-05-31T05:26:25;0.30;;;0.30;;
31081;SDS011;17737;52.586;13.284;2023-05-31T05:28:53;0.25;;;0.25;;
31081;SDS011;17737;52.586;13.284;2023-05-31T05:31:21;0.20;;;0.20;;
31081;SDS011;17737;52.586;13.284;2023-05-31T05:33:50;0.30;;;0.30;;
31081;SDS011;17737;52.586;13.284;2023-05-31T05:36:18;0.30;;;0.30;;
31081;SDS011;17737;52.586;13.284;2023-05-31T05:38:46;0.30;;;0.30;;
31081;SDS011;17737;52.586;13.284;2023-05-31T05:41:16;0.30;;;0.30;;
31081;SDS011;17737;52.586;13.284;2023-05-31T05:43:44;0.30;;;0.25;;
31081;SDS011;17737;52.586;13.284;2023-05-31T05:46:12;0.32;;;0.32;;
31081;SDS011;17737;52.586;13.284;2023-05-31T05:48:40;0.20;;;0.20;;
31081;SDS011;17737;52.586;13.284;2023-05-31T05:51:08;0.20;;;0.20;;
31081;SDS011;17737;52.586;13.284;2023-05-31T05:53:37;0.22;;;0.22;;
31081;SDS011;17737;52.586;13.284;2023-05-31T05:56:05;0.30;;;0.30;;
31081;SDS011;17737;52.586;13.284;2023-05-31T05:58:35;0.32;;;0.32;;
31081;SDS011;17737;52.586;13.284;2023-05-31T06:01:03;0.30;;;0.30;;
31081;SDS011;17737;52.586;13.284;2023-05-31T06:03:31;0.35;;;0.35;;
31081;SDS011;17737;52.586;13.284;2023-05-31T06:06:00;0.30;;;0.30;;
31081;SDS011;17737;52.586;13.284;2023-05-31T06:08:28;0.30;;;0.30;;
31081;SDS011;17737;52.586;13.284;2023-05-31T06:10:56;0.30;;;0.30;;
31081;SDS011;17737;52.586;13.284;2023-05-31T06:13:25;0.30;;;0.30;;
31081;SDS011;17737;52.586;13.284;2023-05-31T06:15:54;0.30;;;0.30;;
31081;SDS011;17737;52.586;13.284;2023-05-31T06:18:22;0.40;;;0.40;;
31081;SDS011;17737;52.586;13.284;2023-05-31T06:20:50;0.30;;;0.30;;
31081;SDS011;17737;52.586;13.284;2023-05-31T06:23:20;0.22;;;0.22;;
31081;SDS011;17737;52.586;13.284;2023-05-31T06:25:48;0.30;;;0.30;;
31081;SDS011;17737;52.586;13.284;2023-05-31T06:28:16;0.30;;;0.30;;
31081;SDS011;17737;52.586;13.284;2023-05-31T06:30:44;0.30;;;0.30;;
31081;SDS011;17737;52.586;13.284;2023-05-31T06:33:13;0.32;;;0.32;;
31081;SDS011;17737;52.586;13.284;2023-05-31T06:35:41;0.20;;;0.20;;
31081;SDS011;17737;52.586;13.284;2023-05-31T06:38:11;0.40;;;0.38;;
31081;SDS011;17737;52.586;13.284;2023-05-31T06:40:41;0.30;;;0.30;;
31081;SDS011;17737;52.586;13.284;2023-05-31T06:43:14;0.20;;;0.20;;
31081;SDS011;17737;52.586;13.284;2023-05-31T06:45:45;0.20;;;0.20;;
31081;SDS011;17737;52.586;13.284;2023-05-31T06:48:22;0.30;;;0.30;;
31081;SDS011;17737;52.586;13.284;2023-05-31T06:50:56;0.30;;;0.30;;
31081;SDS011;17737;52.586;13.284;2023-05-31T06:53:25;0.28;;;0.28;;
31081;SDS011;17737;52.586;13.284;2023-05-31T06:55:53;0.30;;;0.30;;
31081;SDS011;17737;52.586;13.284;2023-05-31T06:58:22;0.20;;;0.20;;
31081;SDS011;17737;52.586;13.284;2023-05-31T07:00:50;0.20;;;0.20;;
31081;SDS011;17737;52.586;13.284;2023-05-31T07:03:18;0.30;;;0.30;;
31081;SDS011;17737;52.586;13.284;2023-05-31T07:05:47;0.30;;;0.30;;
31081;SDS011;17737;52.586;13.284;2023-05-31T07:08:15;0.30;;;0.30;;
31081;SDS011;17737;52.586;13.284;2023-05-31T07:10:43;0.20;;;0.20;;
31081;SDS011;17737;52.586;13.284;2023-05-31T07:13:12;0.20;;;0.20;;
31081;SDS011;17737;52.586;13.284;2023-05-31T07:15:40;0.20;;;0.20;;
31081;SDS011;17737;52.586;13.284;2023-05-31T07:18:08;0.20;;;0.20;;
31081;SDS011;17737;52.586;13.284;2023-05-31T07:20:36;0.30;;;0.30;;
31081;SDS011;17737;52.586;13.284;2023-05-31T07:23:23;0.30;;;0.30;;
31081;SDS011;17737;52.586;13.284;2023-05-31T07:25:53;0.20;;;0.20;;
31081;SDS011;17737;52.586;13.284;2023-05-31T07:28:23;0.13;;;0.13;;
31081;SDS011;17737;52.586;13.284;2023-05-31T07:30:51;0.28;;;0.28;;
31081;SDS011;17737;52.586;13.284;2023-05-31T07:33:19;0.22;;;0.22;;
31081;SDS011;17737;52.586;13.284;2023-05-31T07:35:57;0.30;;;0.30;;
31081;SDS011;17737;52.586;13.284;2023-05-31T07:38:26;0.30;;;0.30;;
31081;SDS011;17737;52.586;13.284;2023-05-31T07:40:55;0.30;;;0.30;;
31081;SDS011;17737;52.586;13.284;2023-05-31T07:43:23;0.20;;;0.20;;
31081;SDS011;17737;52.586;13.284;2023-05-31T07:45:52;0.20;;;0.20;;
31081;SDS011;17737;52.586;13.284;2023-05-31T07:48:21;0.20;;;0.20;;
31081;SDS011;17737;52.586;13.284;2023-05-31T07:50:49;0.20;;;0.20;;
31081;SDS011;17737;52.586;13.284;2023-05-31T07:53:19;0.20;;;0.20;;
31081;SDS011;17737;52.586;13.284;2023-05-31T07:55:47;0.20;;;0.20;;
31081;SDS011;17737;52.586;13.284;2023-05-31T07:58:15;0.20;;;0.20;;
31081;SDS011;17737;52.586;13.284;2023-05-31T08:00:43;0.20;;;0.20;;
31081;SDS011;17737;52.586;13.284;2023-05-31T08:03:16;0.20;;;0.20;;
31081;SDS011;17737;52.586;13.284;2023-05-31T08:05:44;0.20;;;0.20;;
31081;SDS011;17737;52.586;13.284;2023-05-31T08:08:14;0.30;;;0.30;;
31081;SDS011;17737;52.586;13.284;2023-05-31T08:10:44;0.20;;;0.20;;
31081;SDS011;17737;52.586;13.284;2023-05-31T08:13:12;0.30;;;0.30;;
31081;SDS011;17737;52.586;13.284;2023-05-31T08:15:40;0.20;;;0.20;;
31081;SDS011;17737;52.586;13.284;2023-05-31T08:18:08;0.20;;;0.20;;
31081;SDS011;17737;52.586;13.284;2023-05-31T08:20:36;0.20;;;0.20;;
31081;SDS011;17737;52.586;13.284;2023-05-31T08:23:07;0.15;;;0.15;;
31081;SDS011;17737;52.586;13.284;2023-05-31T08:25:39;0.20;;;0.20;;
31081;SDS011;17737;52.586;13.284;2023-05-31T08:28:09;0.20;;;0.20;;
31081;SDS011;17737;52.586;13.284;2023-05-31T08:30:37;0.20;;;0.20;;
31081;SDS011;17737;52.586;13.284;2023-05-31T08:33:05;0.20;;;0.20;;
31081;SDS011;17737;52.586;13.284;2023-05-31T08:35:33;0.93;;;0.20;;
31081;SDS011;17737;52.586;13.284;2023-05-31T08:38:01;0.20;;;0.20;;
31081;SDS011;17737;52.586;13.284;2023-05-31T08:40:29;0.20;;;0.20;;
31081;SDS011;17737;52.586;13.284;2023-05-31T08:42:59;0.20;;;0.20;;
31081;SDS011;17737;52.586;13.284;2023-05-31T08:45:32;0.20;;;0.20;;
31081;SDS011;17737;52.586;13.284;2023-05-31T08:48:05;0.20;;;0.20;;
31081;SDS011;17737;52.586;13.284;2023-05-31T08:50:40;0.20;;;0.20;;
31081;SDS011;17737;52.586;13.284;2023-05-31T08:53:10;0.20;;;0.20;;
31081;SDS011;17737;52.586;13.284;2023-05-31T08:55:41;0.20;;;0.20;;
31081;SDS011;17737;52.586;13.284;2023-05-31T08:58:15;0.20;;;0.20;;
31081;SDS011;17737;52.586;13.284;2023-05-31T09:00:47;0.20;;;0.20;;
31081;SDS011;17737;52.586;13.284;2023-05-31T09:03:16;0.20;;;0.20;;
31081;SDS011;17737;52.586;13.284;2023-05-31T09:05:45;0.20;;;0.20;;
31081;SDS011;17737;52.586;13.284;2023-05-31T09:08:14;0.10;;;0.10;;
31081;SDS011;17737;52.586;13.284;2023-05-31T09:10:42;0.20;;;0.20;;
31081;SDS011;17737;52.586;13.284;2023-05-31T09:13:11;0.20;;;0.20;;
31081;SDS011;17737;52.586;13.284;2023-05-31T09:15:40;0.17;;;0.17;;
31081;SDS011;17737;52.586;13.284;2023-05-31T09:18:14;0.20;;;0.20;;
31081;SDS011;17737;52.586;13.284;2023-05-31T09:20:43;0.20;;;0.20;;
31081;SDS011;17737;52.586;13.284;2023-05-31T09:23:16;0.20;;;0.20;;
31081;SDS011;17737;52.586;13.284;2023-05-31T09:25:46;0.10;;;0.10;;
31081;SDS011;17737;52.586;13.284;2023-05-31T09:28:18;0.15;;;0.15;;
31081;SDS011;17737;52.586;13.284;2023-05-31T09:31:00;0.20;;;0.20;;
31081;SDS011;17737;52.586;13.284;2023-05-31T09:33:38;0.15;;;0.15;;
31081;SDS011;17737;52.586;13.284;2023-05-31T09:36:09;0.10;;;0.10;;
31081;SDS011;17737;52.586;13.284;2023-05-31T09:38:39;0.20;;;0.20;;
31081;SDS011;17737;52.586;13.284;2023-05-31T09:41:11;0.20;;;0.20;;
31081;SDS011;17737;52.586;13.284;2023-05-31T09:43:44;0.17;;;0.17;;
31081;SDS011;17737;52.586;13.284;2023-05-31T09:48:44;0.20;;;0.20;;
31081;SDS011;17737;52.586;13.284;2023-05-31T09:51:24;0.20;;;0.20;;
31081;SDS011;17737;52.586;13.284;2023-05-31T09:53:53;0.20;;;0.20;;
31081;SDS011;17737;52.586;13.284;2023-05-31T09:56:23;0.10;;;0.10;;
31081;SDS011;17737;52.586;13.284;2023-05-31T09:58:55;0.10;;;0.10;;
31081;SDS011;17737;52.586;13.284;2023-05-31T10:01:24;0.10;;;0.10;;
31081;SDS011;17737;52.586;13.284;2023-05-31T10:03:54;0.17;;;0.17;;
31081;SDS011;17737;52.586;13.284;2023-05-31T10:06:25;0.20;;;0.20;;
31081;SDS011;17737;52.586;13.284;2023-05-31T10:08:54;0.15;;;0.15;;
31081;SDS011;17737;52.586;13.284;2023-05-31T10:11:24;0.10;;;0.10;;
31081;SDS011;17737;52.586;13.284;2023-05-31T10:13:59;0.17;;;0.17;;
31081;SDS011;17737;52.586;13.284;2023-05-31T10:16:35;0.20;;;0.20;;
31081;SDS011;17737;52.586;13.284;2023-05-31T10:19:13;0.20;;;0.20;;
31081;SDS011;17737;52.586;13.284;2023-05-31T10:21:50;0.10;;;0.10;;
31081;SDS011;17737;52.586;13.284;2023-05-31T10:24:23;0.20;;;0.20;;
31081;SDS011;17737;52.586;13.284;2023-05-31T10:26:56;0.17;;;0.17;;
31081;SDS011;17737;52.586;13.284;2023-05-31T10:29:35;0.13;;;0.13;;
31081;SDS011;17737;52.586;13.284;2023-05-31T10:32:10;0.20;;;0.20;;
31081;SDS011;17737;52.586;13.284;2023-05-31T10:34:47;0.20;;;0.20;;
31081;SDS011;17737;52.586;13.284;2023-05-31T10:37:16;0.10;;;0.10;;
31081;SDS011;17737;52.586;13.284;2023-05-31T10:39:48;0.20;;;0.20;;
31081;SDS011;17737;52.586;13.284;2023-05-31T10:42:25;0.20;;;0.20;;
31081;SDS011;17737;52.586;13.284;2023-05-31T10:45:16;0.20;;;0.20;;
31081;SDS011;17737;52.586;13.284;2023-05-31T10:47:51;0.10;;;0.10;;
31081;SDS011;17737;52.586;13.284;2023-05-31T10:50:31;0.10;;;0.10;;
31081;SDS011;17737;52.586;13.284;2023-05-31T10:53:09;0.15;;;0.15;;
31081;SDS011;17737;52.586;13.284;2023-05-31T10:55:42;0.20;;;0.20;;
31081;SDS011;17737;52.586;13.284;2023-05-31T10:58:23;0.10;;;0.10;;
31081;SDS011;17737;52.586;13.284;2023-05-31T11:00:54;0.10;;;0.10;;
31081;SDS011;17737;52.586;13.284;2023-05-31T11:05:55;0.20;;;0.20;;
31081;SDS011;17737;52.586;13.284;2023-05-31T11:08:26;0.20;;;0.20;;
31081;SDS011;17737;52.586;13.284;2023-05-31T11:14:22;0.15;;;0.15;;
31081;SDS011;17737;52.586;13.284;2023-05-31T11:17:13;0.10;;;0.10;;
31081;SDS011;17737;52.586;13.284;2023-05-31T11:19:43;0.10;;;0.10;;
31081;SDS011;17737;52.586;13.284;2023-05-31T11:22:24;0.20;;;0.20;;
31081;SDS011;17737;52.586;13.284;2023-05-31T11:24:54;0.15;;;0.15;;
31081;SDS011;17737;52.586;13.284;2023-05-31T11:27:33;0.10;;;0.10;;
31081;SDS011;17737;52.586;13.284;2023-05-31T11:30:06;0.20;;;0.20;;
31081;SDS011;17737;52.586;13.284;2023-05-31T11:35:30;0.10;;;0.10;;
31081;SDS011;17737;52.586;13.284;2023-05-31T11:38:02;0.17;;;0.17;;
31081;SDS011;17737;52.586;13.284;2023-05-31T11:40:32;0.20;;;0.20;;
31081;SDS011;17737;52.586;13.284;2023-05-31T11:43:02;0.20;;;0.20;;
31081;SDS011;17737;52.586;13.284;2023-05-31T11:45:37;0.10;;;0.10;;
31081;SDS011;17737;52.586;13.284;2023-05-31T11:51:06;0.10;;;0.10;;
31081;SDS011;17737;52.586;13.284;2023-05-31T11:53:36;0.10;;;0.10;;
31081;SDS011;17737;52.586;13.284;2023-05-31T11:56:05;0.20;;;0.20;;
31081;SDS011;17737;52.586;13.284;2023-05-31T11:58:45;0.10;;;0.10;;
31081;SDS011;17737;52.586;13.284;2023-05-31T12:01:13;0.10;;;0.10;;
31081;SDS011;17737;52.586;13.284;2023-05-31T12:03:42;0.17;;;0.17;;
31081;SDS011;17737;52.586;13.284;2023-05-31T12:06:10;0.20;;;0.20;;
31081;SDS011;17737;52.586;13.284;2023-05-31T12:08:40;0.10;;;0.10;;
31081;SDS011;17737;52.586;13.284;2023-05-31T12:11:08;0.10;;;0.10;;
31081;SDS011;17737;52.586;13.284;2023-05-31T12:13:36;0.10;;;0.10;;
31081;SDS011;17737;52.586;13.284;2023-05-31T12:16:04;0.10;;;0.10;;
31081;SDS011;17737;52.586;13.284;2023-05-31T12:18:32;0.20;;;0.20;;
31081;SDS011;17737;52.586;13.284;2023-05-31T12:21:06;0.10;;;0.10;;
31081;SDS011;17737;52.586;13.284;2023-05-31T12:26:31;0.10;;;0.10;;
31081;SDS011;17737;52.586;13.284;2023-05-31T12:29:03;0.10;;;0.10;;
31081;SDS011;17737;52.586;13.284;2023-05-31T12:31:33;0.10;;;0.10;;
31081;SDS011;17737;52.586;13.284;2023-05-31T12:34:08;0.10;;;0.10;;
31081;SDS011;17737;52.586;13.284;2023-05-31T12:36:38;0.10;;;0.10;;
31081;SDS011;17737;52.586;13.284;2023-05-31T12:39:10;0.10;;;0.10;;
31081;SDS011;17737;52.586;13.284;2023-05-31T12:41:42;0.10;;;0.10;;
31081;SDS011;17737;52.586;13.284;2023-05-31T12:44:12;0.10;;;0.10;;
31081;SDS011;17737;52.586;13.284;2023-05-31T12:46:42;0.10;;;0.10;;
31081;SDS011;17737;52.586;13.284;2023-05-31T12:51:42;0.10;;;0.10;;
31081;SDS011;17737;52.586;13.284;2023-05-31T12:54:11;0.13;;;0.13;;
31081;SDS011;17737;52.586;13.284;2023-05-31T12:56:39;0.20;;;0.20;;
31081;SDS011;17737;52.586;13.284;2023-05-31T12:59:09;0.10;;;0.10;;
31081;SDS011;17737;52.586;13.284;2023-05-31T13:01:37;0.10;;;0.10;;
31081;SDS011;17737;52.586;13.284;2023-05-31T13:04:08;0.10;;;0.10;;
31081;SDS011;17737;52.586;13.284;2023-05-31T13:06:37;0.20;;;0.20;;
31081;SDS011;17737;52.586;13.284;2023-05-31T13:09:06;0.10;;;0.10;;
31081;SDS011;17737;52.586;13.284;2023-05-31T13:11:35;0.10;;;0.10;;
31081;SDS011;17737;52.586;13.284;2023-05-31T13:14:05;0.10;;;0.10;;
31081;SDS011;17737;52.586;13.284;2023-05-31T13:16:37;0.10;;;0.10;;
31081;SDS011;17737;52.586;13.284;2023-05-31T13:19:06;0.10;;;0.10;;
31081;SDS011;17737;52.586;13.284;2023-05-31T13:21:34;0.10;;;0.10;;
31081;SDS011;17737;52.586;13.284;2023-05-31T13:24:03;0.20;;;0.20;;
31081;SDS011;17737;52.586;13.284;2023-05-31T13:26:34;0.17;;;0.17;;
31081;SDS011;17737;52.586;13.284;2023-05-31T13:29:02;0.10;;;0.10;;
31081;SDS011;17737;52.586;13.284;2023-05-31T13:31:31;0.10;;;0.10;;
31081;SDS011;17737;52.586;13.284;2023-05-31T13:34:01;0.20;;;0.20;;
31081;SDS011;17737;52.586;13.284;2023-05-31T13:36:29;0.20;;;0.20;;
31081;SDS011;17737;52.586;13.284;2023-05-31T13:38:58;0.10;;;0.10;;
31081;SDS011;17737;52.586;13.284;2023-05-31T13:41:26;0.10;;;0.10;;
31081;SDS011;17737;52.586;13.284;2023-05-31T13:43:54;0.10;;;0.10;;
31081;SDS011;17737;52.586;13.284;2023-05-31T13:46:22;0.20;;;0.20;;
31081;SDS011;17737;52.586;13.284;2023-05-31T13:48:53;0.10;;;0.10;;
31081;SDS011;17737;52.586;13.284;2023-05-31T13:51:22;0.10;;;0.10;;
31081;SDS011;17737;52.586;13.284;2023-05-31T13:53:50;0.10;;;0.10;;
31081;SDS011;17737;52.586;13.284;2023-05-31T13:56:18;0.10;;;0.10;;
31081;SDS011;17737;52.586;13.284;2023-05-31T13:58:46;0.20;;;0.20;;
31081;SDS011;17737;52.586;13.284;2023-05-31T14:01:14;0.17;;;0.17;;
31081;SDS011;17737;52.586;13.284;2023-05-31T14:03:42;0.20;;;0.20;;
31081;SDS011;17737;52.586;13.284;2023-05-31T14:06:11;0.10;;;0.10;;
31081;SDS011;17737;52.586;13.284;2023-05-31T14:08:40;0.10;;;0.10;;
31081;SDS011;17737;52.586;13.284;2023-05-31T14:11:10;0.10;;;0.10;;
31081;SDS011;17737;52.586;13.284;2023-05-31T14:13:39;0.17;;;0.17;;
31081;SDS011;17737;52.586;13.284;2023-05-31T14:16:07;0.10;;;0.10;;
31081;SDS011;17737;52.586;13.284;2023-05-31T14:18:35;0.10;;;0.10;;
31081;SDS011;17737;52.586;13.284;2023-05-31T14:21:03;0.13;;;0.13;;
31081;SDS011;17737;52.586;13.284;2023-05-31T14:23:31;0.10;;;0.10;;
31081;SDS011;17737;52.586;13.284;2023-05-31T14:26:01;0.10;;;0.10;;
31081;SDS011;17737;52.586;13.284;2023-05-31T14:28:29;0.10;;;0.10;;
31081;SDS011;17737;52.586;13.284;2023-05-31T14:30:58;0.10;;;0.10;;
31081;SDS011;17737;52.586;13.284;2023-05-31T14:33:26;0.10;;;0.10;;
31081;SDS011;17737;52.586;13.284;2023-05-31T14:35:56;0.10;;;0.10;;
31081;SDS011;17737;52.586;13.284;2023-05-31T14:38:25;0.10;;;0.10;;
31081;SDS011;17737;52.586;13.284;2023-05-31T14:41:02;0.10;;;0.10;;
31081;SDS011;17737;52.586;13.284;2023-05-31T14:43:30;0.10;;;0.10;;
31081;SDS011;17737;52.586;13.284;2023-05-31T14:45:58;0.17;;;0.17;;
31081;SDS011;17737;52.586;13.284;2023-05-31T14:48:26;0.10;;;0.10;;
31081;SDS011;17737;52.586;13.284;2023-05-31T14:50:54;0.10;;;0.10;;
31081;SDS011;17737;52.586;13.284;2023-05-31T14:53:22;0.00;;;0.00;;
31081;SDS011;17737;52.586;13.284;2023-05-31T14:55:50;0.08;;;0.08;;
31081;SDS011;17737;52.586;13.284;2023-05-31T14:58:40;0.08;;;0.08;;
31081;SDS011;17737;52.586;13.284;2023-05-31T15:01:08;0.10;;;0.10;;
31081;SDS011;17737;52.586;13.284;2023-05-31T15:03:37;0.10;;;0.10;;
31081;SDS011;17737;52.586;13.284;2023-05-31T15:06:05;0.10;;;0.10;;
31081;SDS011;17737;52.586;13.284;2023-05-31T15:08:34;0.00;;;0.00;;
31081;SDS011;17737;52.586;13.284;2023-05-31T15:11:02;0.10;;;0.10;;
31081;SDS011;17737;52.586;13.284;2023-05-31T15:13:30;0.10;;;0.10;;
31081;SDS011;17737;52.586;13.284;2023-05-31T15:16:02;0.00;;;0.00;;
31081;SDS011;17737;52.586;13.284;2023-05-31T15:18:31;0.10;;;0.10;;
31081;SDS011;17737;52.586;13.284;2023-05-31T15:20:59;0.05;;;0.05;;
31081;SDS011;17737;52.586;13.284;2023-05-31T15:23:27;0.00;;;0.00;;